Time;durP1;ratioP1;P1;durP2;ratioP2;P2;SDS_P1;SDS_P2;PMS_P1;PMS_P2;Temp;Humidity;BMP_temperature;BMP_pressure;BME280_temperature;BME280_humidity;BME280_pressure;Samples;Min_cycle;Max_cycle;Signal;HPM_P1;HPM_P2
2022/10/06 00:00:44;;;;;;;6.32;1.52;;;13.00;99.90;;;;;;5092167;28;20135;-77
2022/10/06 00:03:10;;;;;;;5.00;1.27;;;13.00;99.90;;;;;;5091767;28;20075;-77
2022/10/06 00:05:36;;;;;;;5.32;1.15;;;13.00;99.90;;;;;;5091950;28;20501;-77
2022/10/06 00:08:02;;;;;;;7.43;1.10;;;12.90;99.90;;;;;;5092077;28;20030;-78
2022/10/06 00:10:29;;;;;;;6.00;1.25;;;12.90;99.90;;;;;;5091738;28;20087;-77
2022/10/06 00:12:55;;;;;;;5.85;1.10;;;12.90;99.90;;;;;;5090969;28;20028;-77
2022/10/06 00:15:25;;;;;;;6.07;1.17;;;12.90;99.90;;;;;;5091668;28;20554;-77
2022/10/06 00:17:50;;;;;;;9.00;1.40;;;12.90;99.90;;;;;;5091766;28;20036;-78
2022/10/06 00:20:17;;;;;;;9.68;1.30;;;12.80;99.90;;;;;;5091804;28;20036;-77
2022/10/06 00:22:45;;;;;;;12.32;1.85;;;12.80;99.90;;;;;;5089810;28;20123;-78
2022/10/06 00:25:13;;;;;;;10.10;1.73;;;12.80;99.90;;;;;;5091051;28;20044;-77
2022/10/06 00:27:41;;;;;;;9.65;1.60;;;12.80;99.90;;;;;;5091501;28;20044;-77
2022/10/06 00:30:15;;;;;;;7.63;1.75;;;12.80;99.90;;;;;;5091543;28;20391;-78
2022/10/06 00:32:48;;;;;;;7.28;1.52;;;12.80;99.90;;;;;;5090978;28;20028;-77
2022/10/06 00:35:14;;;;;;;7.57;1.57;;;12.80;99.90;;;;;;5090857;28;20735;-78
2022/10/06 00:37:39;;;;;;;10.82;1.40;;;12.80;99.90;;;;;;5090234;28;20173;-77
2022/10/06 00:40:08;;;;;;;8.05;1.77;;;12.80;99.90;;;;;;5091189;28;20409;-77
2022/10/06 00:42:46;;;;;;;9.25;1.60;;;12.80;99.90;;;;;;5091118;28;20416;-77
2022/10/06 00:45:12;;;;;;;12.10;1.73;;;12.80;99.90;;;;;;5090618;28;20055;-78
2022/10/06 00:47:38;;;;;;;14.80;1.90;;;12.80;99.90;;;;;;5090844;28;20040;-78
2022/10/06 00:50:05;;;;;;;8.25;1.70;;;12.70;99.90;;;;;;5091159;28;20046;-78
2022/10/06 00:52:30;;;;;;;8.77;1.45;;;12.70;99.90;;;;;;5090670;28;20548;-77
2022/10/06 00:54:59;;;;;;;6.57;1.60;;;12.70;99.90;;;;;;5091152;28;20028;-77
2022/10/06 00:57:26;;;;;;;8.10;1.42;;;12.70;99.90;;;;;;5091282;28;20035;-77
2022/10/06 00:59:52;;;;;;;7.18;1.65;;;12.70;99.90;;;;;;5090725;28;20051;-77
2022/10/06 01:02:22;;;;;;;7.63;1.73;;;12.60;99.90;;;;;;5090739;28;20093;-77
2022/10/06 01:04:54;;;;;;;9.88;1.85;;;12.60;99.90;;;;;;5090714;28;20036;-77
2022/10/06 01:07:21;;;;;;;9.18;1.58;;;12.60;99.90;;;;;;5090914;28;20101;-78
2022/10/06 01:09:47;;;;;;;7.40;1.45;;;12.60;99.90;;;;;;5073387;28;20036;-77
2022/10/06 01:12:13;;;;;;;11.75;1.67;;;12.60;99.90;;;;;;5090222;28;20043;-77
2022/10/06 01:14:40;;;;;;;10.13;1.52;;;12.60;99.90;;;;;;5090864;28;20452;-77
2022/10/06 01:17:19;;;;;;;11.48;1.75;;;12.50;99.90;;;;;;5091017;28;20140;-77
2022/10/06 01:19:50;;;;;;;10.55;1.60;;;12.50;99.90;;;;;;5090597;28;20036;-77
2022/10/06 01:22:28;;;;;;;8.52;1.50;;;12.50;99.90;;;;;;5090191;28;20044;-78
2022/10/06 01:24:54;;;;;;;10.23;2.05;;;12.50;99.90;;;;;;5090109;28;20040;-78
2022/10/06 01:27:22;;;;;;;7.22;1.65;;;12.50;99.90;;;;;;5090533;28;20044;-77
2022/10/06 01:29:54;;;;;;;11.40;1.40;;;12.40;99.90;;;;;;5090533;28;20044;-77
2022/10/06 01:32:21;;;;;;;10.57;1.95;;;12.40;99.90;;;;;;5090310;28;20517;-77
2022/10/06 01:34:47;;;;;;;8.20;2.08;;;12.40;99.90;;;;;;5073615;28;20036;-77
2022/10/06 01:37:13;;;;;;;8.50;2.15;;;12.40;99.90;;;;;;5090364;28;20040;-77
2022/10/06 01:39:39;;;;;;;8.75;1.60;;;12.40;99.90;;;;;;5090406;28;20119;-77
2022/10/06 01:42:05;;;;;;;8.60;1.60;;;12.40;99.90;;;;;;5090088;28;20127;-77
2022/10/06 01:44:30;;;;;;;12.70;2.00;;;12.40;99.90;;;;;;5090431;28;20040;-77
2022/10/06 01:46:56;;;;;;;9.77;1.85;;;12.30;99.90;;;;;;5090344;28;20054;-77
2022/10/06 01:49:21;;;;;;;8.23;1.58;;;12.30;99.90;;;;;;5090620;28;20039;-77
2022/10/06 01:51:47;;;;;;;12.20;2.40;;;12.30;99.90;;;;;;5089876;28;20044;-77
2022/10/06 01:54:13;;;;;;;10.38;1.52;;;12.20;99.90;;;;;;5090432;28;20036;-77
2022/10/06 01:56:39;;;;;;;10.30;1.40;;;12.20;99.90;;;;;;5090382;28;20043;-77
2022/10/06 01:59:04;;;;;;;10.60;1.55;;;12.20;99.90;;;;;;5089356;28;20485;-77
2022/10/06 02:01:30;;;;;;;7.65;1.88;;;12.20;99.90;;;;;;5089221;28;20476;-77
2022/10/06 02:03:56;;;;;;;10.52;1.80;;;12.20;99.90;;;;;;5100182;28;20039;-77
2022/10/06 02:06:21;;;;;;;9.45;2.13;;;12.10;99.90;;;;;;5110492;28;20039;-77
2022/10/06 02:08:47;;;;;;;11.02;2.10;;;12.10;99.90;;;;;;5076855;28;20044;-78
2022/10/06 02:11:13;;;;;;;7.25;1.90;;;12.10;99.90;;;;;;5089963;28;20044;-76
2022/10/06 02:13:39;;;;;;;9.52;1.75;;;12.10;99.90;;;;;;5090005;28;20075;-78
2022/10/06 02:16:07;;;;;;;9.23;1.50;;;12.10;99.90;;;;;;5073260;28;20064;-77
2022/10/06 02:18:33;;;;;;;15.77;2.17;;;12.00;99.90;;;;;;5090295;28;20040;-77
2022/10/06 02:20:59;;;;;;;11.70;1.70;;;12.00;99.90;;;;;;5090026;28;20444;-77
2022/10/06 02:23:25;;;;;;;8.60;1.80;;;12.00;99.90;;;;;;5090172;28;20090;-77
2022/10/06 02:25:59;;;;;;;10.38;2.08;;;12.00;99.90;;;;;;5090235;28;20036;-77
2022/10/06 02:28:25;;;;;;;10.48;1.70;;;12.00;99.90;;;;;;5090044;28;20127;-77
2022/10/06 02:30:51;;;;;;;9.23;1.52;;;12.00;99.90;;;;;;5089822;28;20119;-77
2022/10/06 02:33:16;;;;;;;5.80;1.50;;;11.90;99.90;;;;;;5089763;28;20054;-77
2022/10/06 02:35:42;;;;;;;8.80;1.35;;;11.90;99.90;;;;;;5092536;28;20386;-77
2022/10/06 02:38:08;;;;;;;8.95;1.70;;;11.90;99.90;;;;;;5093913;28;20051;-77
2022/10/06 02:40:34;;;;;;;9.80;1.45;;;11.90;99.90;;;;;;5107011;28;20031;-77
2022/10/06 02:42:59;;;;;;;10.23;1.48;;;11.90;99.90;;;;;;5113715;28;20165;-76
2022/10/06 02:45:25;;;;;;;8.48;1.27;;;11.90;99.90;;;;;;5095250;28;20063;-78
2022/10/06 02:47:53;;;;;;;7.65;1.65;;;11.90;99.90;;;;;;5093372;28;20097;-78
2022/10/06 02:50:19;;;;;;;7.68;1.50;;;11.80;99.90;;;;;;5093173;28;20050;-78
2022/10/06 02:52:45;;;;;;;6.72;1.63;;;11.90;99.90;;;;;;5076449;28;20043;-77
2022/10/06 02:55:11;;;;;;;8.93;1.40;;;11.80;99.90;;;;;;5093340;28;20040;-76
2022/10/06 02:57:36;;;;;;;6.57;1.35;;;11.90;99.90;;;;;;5093439;28;20034;-77
2022/10/06 03:00:06;;;;;;;11.85;2.00;;;11.80;99.90;;;;;;5093073;28;20028;-76
2022/10/06 03:02:32;;;;;;;6.90;1.90;;;11.80;99.90;;;;;;5092777;28;20505;-77
2022/10/06 03:04:58;;;;;;;11.77;2.10;;;11.80;99.90;;;;;;5093082;28;20127;-76
2022/10/06 03:07:24;;;;;;;11.57;2.00;;;11.70;99.90;;;;;;5093280;28;20123;-77
2022/10/06 03:09:49;;;;;;;8.57;1.50;;;11.70;99.90;;;;;;5092161;28;20040;-77
2022/10/06 03:12:15;;;;;;;7.70;1.55;;;11.70;99.90;;;;;;5076224;28;20032;-77
2022/10/06 03:14:40;;;;;;;7.72;1.98;;;11.70;99.90;;;;;;5092946;28;20119;-77
2022/10/06 03:17:08;;;;;;;11.85;1.65;;;11.60;99.90;;;;;;5076315;28;20040;-77
2022/10/06 03:19:34;;;;;;;9.20;1.60;;;11.60;99.90;;;;;;5092860;28;20042;-76
2022/10/06 03:22:00;;;;;;;10.65;1.92;;;11.60;99.90;;;;;;5092564;28;20046;-77
2022/10/06 03:24:26;;;;;;;8.32;1.65;;;11.60;99.90;;;;;;5092706;28;20467;-77
2022/10/06 03:26:51;;;;;;;9.77;2.17;;;11.60;99.90;;;;;;5092758;28;20520;-78
2022/10/06 03:29:17;;;;;;;6.97;1.40;;;11.60;99.90;;;;;;5092865;28;20424;-77
2022/10/06 03:31:43;;;;;;;9.70;1.70;;;11.70;99.90;;;;;;5092162;28;20040;-77
2022/10/06 03:34:08;;;;;;;6.53;1.52;;;11.70;99.90;;;;;;5092431;28;20040;-77
2022/10/06 03:36:35;;;;;;;8.85;1.35;;;11.60;99.90;;;;;;5092443;28;20040;-76
2022/10/06 03:39:03;;;;;;;7.68;1.35;;;11.60;99.90;;;;;;5092709;28;20490;-76
2022/10/06 03:41:32;;;;;;;7.35;1.27;;;11.50;99.90;;;;;;5092419;28;20070;-77
2022/10/06 03:43:58;;;;;;;11.93;1.63;;;11.50;99.90;;;;;;5092645;28;20153;-76
2022/10/06 03:46:26;;;;;;;8.32;1.35;;;11.50;99.90;;;;;;5091301;28;20111;-76
2022/10/06 03:48:52;;;;;;;8.10;1.58;;;11.40;99.90;;;;;;5075667;28;20036;-77
2022/10/06 03:51:26;;;;;;;5.85;1.42;;;11.40;99.90;;;;;;5091512;28;20397;-77
2022/10/06 03:53:52;;;;;;;8.65;1.40;;;11.40;99.90;;;;;;5091411;28;20032;-77
2022/10/06 03:56:27;;;;;;;9.35;1.63;;;11.50;99.90;;;;;;5090598;28;20036;-77
2022/10/06 03:58:58;;;;;;;7.22;1.50;;;11.50;99.90;;;;;;5091647;28;20122;-77
2022/10/06 04:01:32;;;;;;;6.18;1.13;;;11.50;99.90;;;;;;5091730;28;20055;-76
2022/10/06 04:03:59;;;;;;;8.30;1.75;;;11.50;99.90;;;;;;5091828;28;20044;-77
2022/10/06 04:06:26;;;;;;;7.90;1.50;;;11.40;99.90;;;;;;5091990;28;20550;-76
2022/10/06 04:08:53;;;;;;;7.30;1.50;;;11.40;99.90;;;;;;5091785;28;20046;-77
2022/10/06 04:11:27;;;;;;;5.72;1.45;;;11.40;99.90;;;;;;5090765;28;20047;-77
2022/10/06 04:13:59;;;;;;;8.63;1.65;;;11.30;99.90;;;;;;5091443;28;20413;-77
2022/10/06 04:16:36;;;;;;;10.90;1.70;;;11.30;99.90;;;;;;5091966;28;20434;-77
2022/10/06 04:19:06;;;;;;;7.88;1.52;;;11.30;99.90;;;;;;5091714;28;20036;-76
2022/10/06 04:21:37;;;;;;;8.63;1.27;;;11.20;99.90;;;;;;5091655;28;20043;-77
2022/10/06 04:24:03;;;;;;;5.70;1.38;;;11.20;99.90;;;;;;5074439;28;20172;-77
2022/10/06 04:26:32;;;;;;;8.15;1.52;;;11.10;99.90;;;;;;5091600;28;20044;-77
2022/10/06 04:28:59;;;;;;;9.18;1.83;;;11.10;99.90;;;;;;5073541;28;20047;-77
2022/10/06 04:31:28;;;;;;;8.25;1.42;;;11.00;99.90;;;;;;5074064;28;20122;-77
2022/10/06 04:33:56;;;;;;;8.05;1.55;;;11.00;99.90;;;;;;5091307;28;20040;-77
2022/10/06 04:36:25;;;;;;;9.27;1.42;;;11.00;99.90;;;;;;5091309;28;20042;-77
2022/10/06 04:38:55;;;;;;;9.95;1.63;;;10.90;99.90;;;;;;5091236;28;20111;-77
2022/10/06 04:41:21;;;;;;;9.68;1.48;;;10.90;99.90;;;;;;5090958;28;20051;-77
2022/10/06 04:43:48;;;;;;;6.65;1.52;;;10.90;99.90;;;;;;5091433;28;20044;-77
2022/10/06 04:46:15;;;;;;;9.90;1.50;;;10.90;99.90;;;;;;5091093;28;20040;-77
2022/10/06 04:48:41;;;;;;;9.80;1.50;;;10.90;99.90;;;;;;5091253;28;20044;-77
2022/10/06 04:51:11;;;;;;;8.10;1.55;;;10.90;99.90;;;;;;5105750;28;20393;-77
2022/10/06 04:53:37;;;;;;;7.82;1.35;;;10.80;99.90;;;;;;5108390;28;20043;-76
2022/10/06 04:56:09;;;;;;;8.38;1.35;;;10.80;99.90;;;;;;5090409;28;20036;-78
2022/10/06 04:58:40;;;;;;;5.68;1.15;;;10.80;99.90;;;;;;5073275;28;20036;-77
2022/10/06 05:01:13;;;;;;;6.55;1.52;;;10.80;99.90;;;;;;5073625;28;20044;-77
2022/10/06 05:03:38;;;;;;;11.35;1.98;;;10.70;99.90;;;;;;5090702;28;20040;-77
2022/10/06 05:06:06;;;;;;;10.25;1.77;;;10.70;99.90;;;;;;5090950;28;20043;-77
2022/10/06 05:08:33;;;;;;;10.57;1.75;;;10.70;99.90;;;;;;5090837;28;20035;-77
2022/10/06 05:11:05;;;;;;;6.70;1.65;;;10.70;99.90;;;;;;5090678;28;20074;-77
2022/10/06 05:13:31;;;;;;;9.77;1.65;;;10.70;99.90;;;;;;5090891;28;20427;-77
2022/10/06 05:15:58;;;;;;;8.23;1.63;;;10.70;99.90;;;;;;5090516;28;20035;-77
2022/10/06 05:18:25;;;;;;;9.85;1.50;;;10.70;99.90;;;;;;5090074;28;20032;-77
2022/10/06 05:20:54;;;;;;;9.27;2.30;;;10.70;99.90;;;;;;5089539;28;20044;-76
2022/10/06 05:23:20;;;;;;;9.63;1.67;;;10.70;99.90;;;;;;5090491;28;20043;-76
2022/10/06 05:25:51;;;;;;;9.93;1.70;;;10.70;99.90;;;;;;5090991;28;20405;-77
2022/10/06 05:28:16;;;;;;;10.35;1.60;;;10.70;99.90;;;;;;5090494;28;20075;-76
2022/10/06 05:30:42;;;;;;;7.72;1.83;;;10.70;99.90;;;;;;5090328;28;20082;-77
2022/10/06 05:33:10;;;;;;;9.68;1.70;;;10.80;99.90;;;;;;5089897;28;20040;-77
2022/10/06 05:35:35;;;;;;;9.05;1.65;;;10.70;99.90;;;;;;5090419;28;20120;-77
2022/10/06 05:38:01;;;;;;;11.75;1.75;;;10.80;99.90;;;;;;5090547;28;20485;-77
2022/10/06 05:40:26;;;;;;;9.48;1.50;;;10.80;99.90;;;;;;5090381;28;20078;-77
2022/10/06 05:42:54;;;;;;;13.60;1.73;;;10.80;99.90;;;;;;5090323;28;20127;-77
2022/10/06 05:45:19;;;;;;;9.15;1.65;;;10.70;99.90;;;;;;5090064;28;20051;-76
2022/10/06 05:47:45;;;;;;;10.38;1.33;;;10.80;99.90;;;;;;5089641;28;20040;-77
2022/10/06 05:50:10;;;;;;;9.77;1.75;;;10.80;99.90;;;;;;5090474;28;20048;-77
2022/10/06 05:52:37;;;;;;;8.57;1.77;;;10.80;99.90;;;;;;5090022;28;20036;-76
2022/10/06 05:55:02;;;;;;;12.82;1.70;;;10.80;99.90;;;;;;5089440;28;20165;-77
2022/10/06 05:57:28;;;;;;;8.50;1.60;;;10.90;99.90;;;;;;5073362;28;20523;-76
2022/10/06 05:59:53;;;;;;;11.77;1.75;;;11.00;99.90;;;;;;5090502;28;20052;-77
2022/10/06 06:02:19;;;;;;;11.73;1.75;;;11.00;99.90;;;;;;5090109;28;20040;-77
2022/10/06 06:04:44;;;;;;;9.57;1.42;;;11.00;99.90;;;;;;5073452;28;20509;-77
2022/10/06 06:07:11;;;;;;;11.88;2.00;;;11.10;99.90;;;;;;5090474;28;20051;-76
2022/10/06 06:09:37;;;;;;;12.10;1.90;;;11.10;99.90;;;;;;5092558;28;20432;-77
2022/10/06 06:12:03;;;;;;;8.40;1.33;;;11.20;99.90;;;;;;5094084;28;20119;-77
2022/10/06 06:17:12;;;;;;;8.48;2.10;;;11.20;99.90;;;;;;5094044;28;20044;-77
2022/10/06 06:19:38;;;;;;;7.28;1.50;;;11.10;99.90;;;;;;5094062;28;20044;-77
2022/10/06 06:22:03;;;;;;;7.97;1.35;;;11.10;99.90;;;;;;5093706;28;20040;-77
2022/10/06 06:24:29;;;;;;;10.50;1.50;;;11.10;99.90;;;;;;5095179;28;20058;-77
2022/10/06 06:26:54;;;;;;;8.15;1.65;;;11.00;99.90;;;;;;5093905;28;20051;-77
2022/10/06 06:29:20;;;;;;;8.23;1.83;;;11.00;99.90;;;;;;5093674;28;20040;-77
2022/10/06 06:31:47;;;;;;;9.55;1.48;;;11.00;99.90;;;;;;5076654;28;20092;-77
2022/10/06 06:34:12;;;;;;;9.55;1.55;;;11.00;99.90;;;;;;5093116;28;20116;-77
2022/10/06 06:36:40;;;;;;;6.53;1.42;;;11.10;99.90;;;;;;5093861;28;20036;-77
2022/10/06 06:39:08;;;;;;;11.10;1.95;;;11.10;99.90;;;;;;5093431;28;20040;-77
2022/10/06 06:41:36;;;;;;;7.03;1.50;;;11.10;99.90;;;;;;5093491;28;20039;-77
2022/10/06 06:44:03;;;;;;;10.23;1.75;;;11.20;99.90;;;;;;5093359;28;20120;-77
2022/10/06 06:46:32;;;;;;;8.85;1.40;;;11.20;99.90;;;;;;5093503;28;20047;-77
2022/10/06 06:49:02;;;;;;;7.18;1.50;;;11.30;99.90;;;;;;5093614;28;20039;-77
2022/10/06 06:51:29;;;;;;;7.15;1.67;;;11.30;99.90;;;;;;5093123;28;20048;-77
2022/10/06 06:53:58;;;;;;;10.52;2.10;;;11.40;99.90;;;;;;5093816;28;20405;-78
2022/10/06 06:56:23;;;;;;;9.98;1.42;;;11.40;99.90;;;;;;5093191;28;20035;-78
2022/10/06 06:58:49;;;;;;;8.73;2.25;;;11.50;99.90;;;;;;5093014;28;20040;-78
2022/10/06 07:01:17;;;;;;;10.35;1.70;;;11.50;99.90;;;;;;5092947;28;20044;-77
2022/10/06 07:03:47;;;;;;;7.53;1.60;;;11.60;99.90;;;;;;5093186;28;20051;-77
2022/10/06 07:06:15;;;;;;;10.88;1.50;;;11.70;99.90;;;;;;5092656;28;20138;-77
2022/10/06 07:08:43;;;;;;;9.40;1.92;;;11.70;99.90;;;;;;5092050;28;20040;-77
2022/10/06 07:11:24;;;;;;;10.10;1.70;;;11.80;99.90;;;;;;5092703;28;20044;-77
2022/10/06 07:13:56;;;;;;;8.63;1.30;;;11.90;99.90;;;;;;5093001;28;20086;-77
2022/10/06 07:25:07;;;;;;;10.43;1.75;;;12.20;99.90;;;;;;5092780;28;20127;-77
2022/10/06 07:27:40;;;;;;;8.30;1.92;;;12.30;99.90;;;;;;5092957;28;20062;-77
2022/10/06 07:30:08;;;;;;;;;;;12.40;99.90;;;;;;5093213;28;20094;-77
2022/10/06 07:32:33;;;;;;;12.10;1.75;;;12.50;99.90;;;;;;5092568;28;20327;-77
2022/10/06 07:34:59;;;;;;;9.00;1.77;;;12.60;99.90;;;;;;5092505;28;20032;-77
2022/10/06 07:37:27;;;;;;;7.18;1.42;;;12.70;99.90;;;;;;5092590;28;20139;-77
2022/10/06 07:39:53;;;;;;;9.95;1.88;;;12.80;99.90;;;;;;5092339;28;20123;-77
2022/10/06 07:42:19;;;;;;;11.18;1.98;;;12.80;99.90;;;;;;5092121;28;20457;-77
2022/10/06 07:45:37;;;;;;;7.55;1.60;;;12.90;99.90;;;;;;5075380;28;20036;-77
2022/10/06 07:47:32;;;;;;;9.90;2.42;;;13.00;99.90;;;;;;5091783;28;20079;-77
2022/10/06 07:49:57;;;;;;;7.70;1.60;;;13.10;99.90;;;;;;5090791;28;20489;-77
2022/10/06 07:52:27;;;;;;;8.50;1.65;;;13.20;99.90;;;;;;5092049;28;20040;-77
2022/10/06 07:54:54;;;;;;;12.85;2.05;;;13.30;99.90;;;;;;5092240;28;20075;-77
2022/10/06 07:57:20;;;;;;;8.85;1.75;;;13.40;99.90;;;;;;5091957;28;20055;-78
2022/10/06 07:59:45;;;;;;;12.55;1.85;;;13.50;99.90;;;;;;5092004;28;20040;-77
2022/10/06 08:02:11;;;;;;;9.77;2.00;;;13.60;99.90;;;;;;5074916;28;20058;-78
2022/10/06 08:04:36;;;;;;;17.25;2.00;;;13.60;99.90;;;;;;5091905;28;20403;-77
2022/10/06 08:07:03;;;;;;;10.95;1.80;;;13.70;99.90;;;;;;5092354;28;20496;-77
2022/10/06 08:09:29;;;;;;;10.23;1.60;;;13.80;99.90;;;;;;5091899;28;20117;-77
2022/10/06 08:11:55;;;;;;;9.48;1.95;;;13.80;99.90;;;;;;5091475;28;20039;-77
2022/10/06 08:14:21;;;;;;;8.25;1.80;;;13.90;99.90;;;;;;5091890;28;20438;-77
2022/10/06 08:16:47;;;;;;;12.13;2.10;;;13.90;99.90;;;;;;5091991;28;20443;-76
2022/10/06 08:19:13;;;;;;;7.28;1.40;;;14.00;99.90;;;;;;5074090;28;20036;-77
2022/10/06 08:21:39;;;;;;;7.78;1.63;;;14.00;99.90;;;;;;5090338;28;20040;-77
2022/10/06 08:24:05;;;;;;;7.65;1.52;;;14.10;99.90;;;;;;5091925;28;20105;-77
2022/10/06 08:26:32;;;;;;;8.85;1.85;;;14.10;99.90;;;;;;5091548;28;20040;-77
2022/10/06 08:29:01;;;;;;;13.55;2.13;;;14.20;99.90;;;;;;5091553;28;20043;-77
2022/10/06 08:31:28;;;;;;;11.02;1.90;;;14.20;99.90;;;;;;5084179;28;20046;-76
2022/10/06 08:33:55;;;;;;;12.18;2.35;;;14.20;99.90;;;;;;5110779;28;20074;-77
2022/10/06 08:36:22;;;;;;;11.75;2.05;;;14.20;99.90;;;;;;5099182;28;20044;-77
2022/10/06 08:38:50;;;;;;;11.00;1.88;;;14.30;99.90;;;;;;5091279;28;20068;-77
2022/10/06 08:41:26;;;;;;;10.52;1.77;;;14.30;99.90;;;;;;5091061;28;20075;-78
2022/10/06 08:44:04;;;;;;;11.10;1.75;;;14.30;99.90;;;;;;5091077;28;20105;-77
2022/10/06 08:46:50;;;;;;;6.20;1.55;;;14.40;99.90;;;;;;5091073;28;20054;-78
2022/10/06 08:49:19;;;;;;;11.65;2.10;;;14.40;99.90;;;;;;5091271;28;20123;-77
2022/10/06 08:51:47;;;;;;;10.70;2.45;;;14.40;99.90;;;;;;5090618;28;20040;-77
2022/10/06 08:54:37;;;;;;;10.88;1.73;;;14.50;99.90;;;;;;5074783;28;20076;-77
2022/10/06 08:57:19;;;;;;;12.55;1.95;;;14.50;99.90;;;;;;5085156;28;20048;-78
2022/10/06 08:59:51;;;;;;;11.57;1.92;;;14.50;99.90;;;;;;5090930;28;20089;-77
2022/10/06 09:02:40;;;;;;;10.05;2.20;;;14.50;99.90;;;;;;5090854;28;20036;-77
2022/10/06 09:05:10;;;;;;;8.82;1.50;;;14.60;99.90;;;;;;5091129;28;20079;-77
2022/10/06 09:07:52;;;;;;;12.10;2.20;;;14.50;99.90;;;;;;5090813;28;20043;-77
2022/10/06 09:10:27;;;;;;;8.57;1.88;;;14.60;99.90;;;;;;5090763;28;20566;-77
2022/10/06 09:13:10;;;;;;;8.88;2.00;;;14.60;99.90;;;;;;5090478;28;20046;-77
2022/10/06 09:15:53;;;;;;;10.82;1.77;;;14.60;99.90;;;;;;5090604;28;20039;-77
2022/10/06 09:18:30;;;;;;;10.93;1.92;;;14.70;99.90;;;;;;5090859;28;20043;-77
2022/10/06 09:21:05;;;;;;;11.18;2.00;;;14.70;99.90;;;;;;5090481;28;20051;-78
2022/10/06 09:23:49;;;;;;;9.73;1.58;;;14.80;99.90;;;;;;5090449;28;20040;-77
2022/10/06 09:26:30;;;;;;;7.22;1.70;;;14.80;99.90;;;;;;5090204;28;20123;-78
2022/10/06 09:28:56;;;;;;;8.88;1.83;;;14.90;99.90;;;;;;5089679;28;20047;-77
2022/10/06 09:31:25;;;;;;;6.93;1.67;;;14.80;99.90;;;;;;5090366;28;20082;-78
2022/10/06 09:33:58;;;;;;;8.60;1.90;;;14.90;99.90;;;;;;5073726;28;20036;-77
2022/10/06 09:36:24;;;;;;;11.50;1.63;;;14.90;99.90;;;;;;5090855;28;20051;-77
2022/10/06 09:38:55;;;;;;;13.15;1.73;;;14.90;99.90;;;;;;5090314;28;20561;-77
2022/10/06 09:41:33;;;;;;;9.35;1.58;;;14.90;99.90;;;;;;5090275;28;20040;-77
2022/10/06 09:44:02;;;;;;;8.93;1.38;;;14.90;99.90;;;;;;5090323;28;20062;-77
2022/10/06 09:46:28;;;;;;;11.43;1.80;;;15.00;99.90;;;;;;5094753;28;20032;-77
2022/10/06 09:49:12;;;;;;;8.48;1.30;;;15.10;99.90;;;;;;5077839;28;20520;-77
2022/10/06 09:51:38;;;;;;;8.43;1.70;;;15.20;99.90;;;;;;5092835;28;20409;-77
2022/10/06 09:54:14;;;;;;;8.23;1.63;;;15.20;99.90;;;;;;5094342;28;20039;-76
2022/10/06 09:56:43;;;;;;;6.45;1.38;;;15.30;99.90;;;;;;5094612;28;20097;-77
2022/10/06 09:59:35;;;;;;;10.60;1.48;;;15.30;99.90;;;;;;5094454;28;20059;-77
2022/10/06 10:02:03;;;;;;;8.80;1.20;;;15.20;99.90;;;;;;5094175;28;20036;-78
2022/10/06 10:04:39;;;;;;;7.88;1.60;;;15.20;99.90;;;;;;5080574;28;20035;-77
2022/10/06 10:07:23;;;;;;;9.95;1.45;;;15.30;99.90;;;;;;5114789;28;20044;-77
2022/10/06 10:09:48;;;;;;;10.18;1.70;;;15.20;99.90;;;;;;5113828;28;20066;-77
2022/10/06 10:12:24;;;;;;;8.35;1.52;;;15.20;99.90;;;;;;5103256;28;20494;-77
2022/10/06 10:15:21;;;;;;;9.13;2.20;;;15.10;99.90;;;;;;5093963;28;20125;-77
2022/10/06 10:17:50;;;;;;;8.30;1.92;;;15.20;99.90;;;;;;5085635;28;20040;-76
2022/10/06 10:20:32;;;;;;;8.50;1.67;;;15.40;99.90;;;;;;5094001;28;20125;-77
2022/10/06 10:23:02;;;;;;;15.15;2.03;;;15.60;99.90;;;;;;5093703;28;20055;-77
2022/10/06 10:25:46;;;;;;;7.90;1.23;;;15.90;99.90;;;;;;5076756;28;20055;-77
2022/10/06 10:28:45;;;;;;;6.80;1.40;;;16.00;99.90;;;;;;5093193;28;20036;-77
2022/10/06 10:31:37;;;;;;;10.82;2.35;;;16.00;99.90;;;;;;5075636;28;20136;-78
2022/10/06 10:34:24;;;;;;;7.93;1.30;;;16.10;99.90;;;;;;5094047;28;20058;-78
2022/10/06 10:37:12;;;;;;;6.53;1.33;;;16.20;99.90;;;;;;5093697;28;20036;-78
2022/10/06 10:39:47;;;;;;;5.63;1.40;;;16.30;99.90;;;;;;5093382;28;20512;-78
2022/10/06 10:42:22;;;;;;;5.97;1.38;;;16.40;99.90;;;;;;5092852;28;20039;-78
2022/10/06 10:45:00;;;;;;;6.13;1.15;;;16.50;99.90;;;;;;5093365;28;20508;-77
2022/10/06 10:47:33;;;;;;;8.25;1.60;;;16.60;99.90;;;;;;5076679;28;20082;-78
2022/10/06 10:50:07;;;;;;;8.48;1.58;;;16.60;99.90;;;;;;5093394;28;20028;-77
2022/10/06 10:52:40;;;;;;;6.43;1.45;;;16.50;99.90;;;;;;5093155;28;20112;-77
2022/10/06 10:55:26;;;;;;;8.60;1.50;;;16.60;99.90;;;;;;5075698;28;20059;-78
2022/10/06 10:57:55;;;;;;;5.97;1.17;;;16.70;99.90;;;;;;5093177;28;20500;-78
2022/10/06 11:00:26;;;;;;;6.05;1.75;;;16.80;99.90;;;;;;5093310;28;20036;-78
2022/10/06 11:02:56;;;;;;;8.77;1.10;;;17.00;99.90;;;;;;5092891;28;20051;-78
2022/10/06 11:05:33;;;;;;;5.30;1.08;;;16.90;99.90;;;;;;5093285;28;20127;-78
2022/10/06 11:08:08;;;;;;;9.98;1.42;;;16.90;99.90;;;;;;5093208;28;20040;-78
2022/10/06 11:10:43;;;;;;;6.85;1.23;;;16.90;99.90;;;;;;5092940;28;20523;-79
2022/10/06 11:13:09;;;;;;;5.97;1.40;;;16.90;99.90;;;;;;5092869;28;21925;-78
2022/10/06 11:15:40;;;;;;;11.07;1.45;;;17.00;99.90;;;;;;5093424;28;20044;-78
2022/10/06 11:18:41;;;;;;;8.13;1.35;;;17.00;99.90;;;;;;5093132;28;20067;-78
2022/10/06 11:21:35;;;;;;;7.50;1.20;;;17.00;99.90;;;;;;5092282;28;20079;-78
2022/10/06 11:24:16;;;;;;;9.18;1.20;;;17.10;99.90;;;;;;5092869;28;20075;-80
2022/10/06 11:27:00;;;;;;;7.25;1.25;;;17.20;99.90;;;;;;5106512;28;20047;-79
2022/10/06 11:29:33;;;;;;;;;;;17.30;99.90;;;;;;5113007;28;20074;-78
2022/10/06 11:32:20;;;;;;;8.13;1.20;;;17.30;99.90;;;;;;5092630;28;19920;-79
2022/10/06 11:34:49;;;;;;;6.82;1.20;;;17.30;99.90;;;;;;5092822;28;20405;-78
2022/10/06 11:37:43;;;;;;;8.93;1.35;;;17.40;99.90;;;;;;5093144;28;20504;-79
2022/10/06 11:40:15;;;;;;;3.88;0.90;;;17.50;99.90;;;;;;5092957;28;20040;-79
2022/10/06 11:42:56;;;;;;;6.45;1.10;;;17.50;99.90;;;;;;5092601;28;20093;-79
2022/10/06 11:45:43;;;;;;;6.68;1.80;;;17.60;99.90;;;;;;5092736;28;20181;-79
2022/10/06 11:48:29;;;;;;;3.90;1.10;;;17.70;99.90;;;;;;5092512;28;20044;-79
2022/10/06 11:51:16;;;;;;;3.90;0.80;;;17.90;99.90;;;;;;5092603;28;20451;-79
2022/10/06 11:53:42;;;;;;;7.90;1.23;;;17.90;99.90;;;;;;5092995;28;20036;-79
2022/10/06 11:56:17;;;;;;;6.22;1.30;;;18.10;99.90;;;;;;5092838;28;20036;-79
2022/10/06 11:58:55;;;;;;;20.20;2.05;;;17.90;99.90;;;;;;5093621;28;20183;-79
2022/10/06 12:01:43;;;;;;;14.00;2.25;;;17.70;99.90;;;;;;5093147;28;20040;-80
2022/10/06 12:04:09;;;;;;;5.97;1.10;;;17.50;99.90;;;;;;5083731;28;20051;-80
2022/10/06 12:06:40;;;;;;;14.63;1.40;;;17.50;99.90;;;;;;5092269;28;20040;-79
2022/10/06 12:09:24;;;;;;;7.88;1.42;;;17.30;99.90;;;;;;5091982;28;20094;-79
2022/10/06 12:12:13;;;;;;;6.22;1.30;;;17.10;99.90;;;;;;5075428;28;20097;-80
2022/10/06 12:14:43;;;;;;;5.00;1.15;;;17.10;99.90;;;;;;5047713;28;20409;-80
2022/10/06 12:17:30;;;;;;;5.72;1.25;;;17.20;99.90;;;;;;5093352;28;20589;-80
2022/10/06 12:20:20;;;;;;;5.72;1.20;;;17.40;99.90;;;;;;5092574;28;20448;-80
2022/10/06 12:22:51;;;;;;;8.43;0.90;;;17.60;99.90;;;;;;5074518;28;20047;-80
2022/10/06 12:25:38;;;;;;;5.78;1.35;;;17.90;99.90;;;;;;5091634;28;20028;-81
2022/10/06 12:28:21;;;;;;;7.93;1.20;;;18.10;99.90;;;;;;5093026;28;20405;-80
2022/10/06 12:30:53;;;;;;;9.68;1.55;;;18.30;99.90;;;;;;5092775;28;20031;-80
2022/10/06 12:33:19;;;;;;;4.50;0.93;;;18.20;99.90;;;;;;5092046;28;20524;-81
2022/10/06 12:35:45;;;;;;;5.25;1.52;;;18.10;99.90;;;;;;5092476;28;20047;-80
2022/10/06 12:38:29;;;;;;;7.93;1.33;;;18.10;99.90;;;;;;5075940;28;20447;-80
2022/10/06 12:40:55;;;;;;;5.82;1.10;;;18.20;99.90;;;;;;5091958;28;20040;-81
2022/10/06 12:43:21;;;;;;;4.53;1.00;;;18.30;99.90;;;;;;5073923;28;20097;-80
2022/10/06 12:46:22;;;;;;;4.82;0.88;;;18.40;99.90;;;;;;5092648;28;20040;-81
2022/10/06 12:49:00;;;;;;;5.22;1.02;;;18.50;99.90;;;;;;5071245;28;20044;-80
2022/10/06 12:51:33;;;;;;;5.68;0.93;;;18.50;99.90;;;;;;5091405;28;20051;-80
2022/10/06 12:54:12;;;;;;;6.03;1.20;;;18.50;99.90;;;;;;5091978;28;20036;-80
2022/10/06 12:56:42;;;;;;;6.50;1.08;;;18.40;99.90;;;;;;5075428;28;20070;-80
2022/10/06 12:59:20;;;;;;;5.85;0.95;;;18.30;99.90;;;;;;5092689;28;20039;-81
2022/10/06 13:01:48;;;;;;;7.85;1.17;;;18.40;99.90;;;;;;5091942;28;20039;-79
2022/10/06 13:04:37;;;;;;;4.80;1.13;;;18.50;99.90;;;;;;5076023;28;20044;-80
2022/10/06 13:07:19;;;;;;;4.78;0.90;;;18.60;99.70;;;;;;5092269;28;20040;-81
2022/10/06 13:09:46;;;;;;;5.50;1.38;;;18.60;99.90;;;;;;5092660;28;20093;-81
2022/10/06 13:12:25;;;;;;;6.65;1.23;;;18.60;99.90;;;;;;5075353;28;20083;-80
2022/10/06 13:15:17;;;;;;;5.95;1.23;;;18.50;99.90;;;;;;5076057;28;20557;-80